Time;durP1;ratioP1;P1;durP2;ratioP2;P2;SDS_P1;SDS_P2;PMS_P1;PMS_P2;Temp;Humidity;BMP_temperature;BMP_pressure;BME280_temperature;BME280_humidity;BME280_pressure;Samples;Min_cycle;Max_cycle;Signal;HPM_P1;HPM_P2
2021/03/04 00:00:22;;;;;;;11.77;10.43;;;5.30;99.90;;;;;;4872681;28;20679;-77
2021/03/04 00:02:45;;;;;;;11.93;10.63;;;5.20;1.00;;;;;;4869189;28;20248;-76
2021/03/04 00:05:09;;;;;;;12.17;10.03;;;5.20;1.00;;;;;;4861594;28;20234;-77
2021/03/04 00:07:31;;;;;;;12.43;10.60;;;5.10;99.90;;;;;;4867588;28;20718;-73
2021/03/04 00:09:53;;;;;;;13.47;10.40;;;5.10;99.90;;;;;;4859008;28;20209;-77
2021/03/04 00:12:15;;;;;;;13.17;10.97;;;5.10;99.90;;;;;;4860352;28;20252;-77
2021/03/04 00:14:39;;;;;;;12.63;11.33;;;5.10;99.90;;;;;;4859819;28;20190;-76
2021/03/04 00:17:01;;;;;;;11.83;10.57;;;5.00;36.40;;;;;;4853511;28;20269;-76
2021/03/04 00:19:24;;;;;;;12.77;10.67;;;5.00;1.00;;;;;;4875855;28;20194;-76
2021/03/04 00:21:46;;;;;;;13.47;10.27;;;4.80;99.90;;;;;;4877312;28;20193;-77
2021/03/04 00:24:09;;;;;;;12.87;11.00;;;4.80;1.00;;;;;;4864266;28;20186;-76
2021/03/04 00:26:31;;;;;;;12.80;10.73;;;4.70;1.00;;;;;;4876120;28;20327;-78
2021/03/04 00:28:53;;;;;;;13.17;11.80;;;4.70;6.80;;;;;;4864008;28;20189;-77
2021/03/04 00:31:16;;;;;;;13.13;11.07;;;4.70;1.00;;;;;;4841152;28;20254;-79
2021/03/04 00:33:38;;;;;;;14.30;11.40;;;4.70;1.00;;;;;;4859481;28;20186;-77
2021/03/04 00:36:01;;;;;;;13.93;12.07;;;4.70;1.00;;;;;;4862789;28;20193;-77
2021/03/04 00:38:23;;;;;;;16.83;12.00;;;4.70;99.90;;;;;;4876360;28;20224;-76
2021/03/04 00:40:45;;;;;;;15.13;11.43;;;4.60;1.00;;;;;;4858600;28;20225;-78
2021/03/04 00:43:07;;;;;;;13.03;11.00;;;4.60;1.00;;;;;;4873057;28;20179;-77
2021/03/04 00:45:30;;;;;;;14.47;11.30;;;4.60;99.90;;;;;;4860688;28;20222;-77
2021/03/04 00:47:53;;;;;;;13.73;11.67;;;4.60;1.00;;;;;;4859867;28;20225;-77
2021/03/04 00:50:17;;;;;;;13.97;11.77;;;4.60;1.00;;;;;;4862455;28;20190;-75
2021/03/04 00:52:40;;;;;;;14.63;11.27;;;4.50;42.70;;;;;;4858663;28;20209;-78
2021/03/04 00:55:02;;;;;;;15.10;12.00;;;4.50;99.90;;;;;;4844310;28;20205;-76
2021/03/04 00:57:24;;;;;;;14.70;11.90;;;4.50;99.90;;;;;;4858659;28;20194;-77
2021/03/04 00:59:46;;;;;;;17.17;13.13;;;4.50;99.90;;;;;;4875111;28;20185;-77
2021/03/04 01:02:08;;;;;;;14.83;12.13;;;4.50;99.90;;;;;;4864304;28;20670;-73
2021/03/04 01:04:31;;;;;;;15.97;13.07;;;4.40;1.00;;;;;;4881244;28;20279;-76
2021/03/04 01:06:54;;;;;;;14.23;12.00;;;4.40;1.00;;;;;;4859377;28;20222;-78
2021/03/04 01:09:16;;;;;;;14.80;12.33;;;4.40;1.00;;;;;;4867572;28;20248;-77
2021/03/04 01:11:38;;;;;;;14.37;11.83;;;4.40;1.00;;;;;;4874808;28;20687;-78
2021/03/04 01:14:00;;;;;;;14.50;12.10;;;4.30;1.00;;;;;;4877650;28;20181;-77
2021/03/04 01:16:22;;;;;;;13.27;11.10;;;4.30;1.00;;;;;;4874280;28;20189;-76
2021/03/04 01:18:44;;;;;;;14.50;12.20;;;4.30;1.00;;;;;;4857872;28;20190;-77
2021/03/04 01:21:07;;;;;;;13.93;11.13;;;4.30;99.90;;;;;;4853494;28;20190;-77
2021/03/04 01:23:30;;;;;;;16.07;12.33;;;4.40;1.00;;;;;;4877305;28;20185;-77
2021/03/04 01:25:52;;;;;;;13.47;12.00;;;4.30;99.90;;;;;;4870963;28;20213;-79
2021/03/04 01:28:14;;;;;;;13.77;12.03;;;4.20;27.50;;;;;;4842686;28;20248;-77
2021/03/04 01:30:36;;;;;;;14.67;12.23;;;4.30;99.90;;;;;;4870836;28;20181;-78
2021/03/04 01:32:58;;;;;;;14.20;12.03;;;4.40;99.90;;;;;;4877445;28;20228;-79
2021/03/04 01:35:20;;;;;;;13.97;12.17;;;4.50;99.90;;;;;;4875588;28;20263;-78
2021/03/04 01:37:44;;;;;;;14.90;12.10;;;4.60;99.90;;;;;;4863208;28;20271;-79
2021/03/04 01:40:08;;;;;;;14.03;11.97;;;4.60;99.90;;;;;;4857789;28;20186;-78
2021/03/04 01:42:30;;;;;;;12.77;11.40;;;4.80;99.90;;;;;;4869656;28;20587;-77
2021/03/04 01:44:53;;;;;;;17.20;11.40;;;4.80;17.10;;;;;;4875328;28;20247;-77
2021/03/04 01:47:16;;;;;;;12.47;11.17;;;5.00;1.00;;;;;;4867315;28;20749;-77
2021/03/04 01:49:38;;;;;;;13.73;10.90;;;5.10;99.90;;;;;;4838832;28;20601;-77
2021/03/04 01:52:00;;;;;;;13.30;11.27;;;5.10;1.00;;;;;;4872057;28;20185;-79
2021/03/04 01:54:27;;;;;;;12.17;10.50;;;5.20;99.90;;;;;;4870894;28;20244;-78
2021/03/04 01:56:49;;;;;;;14.73;11.90;;;5.20;99.90;;;;;;4845880;28;20270;-76
2021/03/04 01:59:12;;;;;;;12.10;10.67;;;5.20;1.00;;;;;;4856255;28;20235;-77
2021/03/04 02:01:34;;;;;;;15.77;11.00;;;5.20;1.00;;;;;;4844737;28;20237;-79
2021/03/04 02:03:57;;;;;;;12.70;10.73;;;5.20;99.90;;;;;;4881370;28;20268;-76
2021/03/04 02:06:22;;;;;;;12.10;10.60;;;5.20;75.90;;;;;;4857424;28;20210;-79
2021/03/04 02:08:50;;;;;;;14.03;11.33;;;5.20;99.90;;;;;;4874867;28;20200;-77
2021/03/04 02:11:21;;;;;;;15.50;11.67;;;5.10;1.00;;;;;;4856765;28;20248;-80
2021/03/04 02:13:47;;;;;;;17.13;11.83;;;5.00;1.00;;;;;;4876530;28;20211;-77
2021/03/04 02:16:14;;;;;;;13.40;11.27;;;5.10;99.90;;;;;;4857017;28;20240;-78
2021/03/04 02:18:41;;;;;;;14.17;11.67;;;5.00;99.90;;;;;;4859268;28;20197;-79
2021/03/04 02:21:35;;;;;;;12.80;11.47;;;5.00;1.00;;;;;;4862764;28;20185;-77
2021/03/04 02:24:29;;;;;;;15.33;12.23;;;5.10;1.00;;;;;;4872726;28;20658;-77
2021/03/04 02:27:02;;;;;;;13.67;11.37;;;5.20;87.10;;;;;;4856115;28;20227;-81
2021/03/04 02:29:27;;;;;;;13.67;11.30;;;5.40;1.00;;;;;;4858321;28;20701;-77
2021/03/04 02:31:52;;;;;;;15.40;11.87;;;5.20;99.90;;;;;;4857613;28;20189;-79
2021/03/04 02:34:15;;;;;;;12.77;11.23;;;5.30;1.00;;;;;;4874627;28;20255;-79
2021/03/04 02:36:40;;;;;;;14.73;11.80;;;5.30;1.00;;;;;;4858636;28;20240;-78
2021/03/04 02:39:06;;;;;;;14.33;11.53;;;5.30;1.00;;;;;;4873466;28;20193;-79
2021/03/04 02:41:28;;;;;;;13.17;11.80;;;5.30;99.90;;;;;;4861818;28;20220;-77
2021/03/04 02:43:52;;;;;;;12.80;10.77;;;5.20;1.00;;;;;;4858783;28;20194;-77
2021/03/04 02:46:14;;;;;;;14.03;11.20;;;5.20;1.00;;;;;;4857882;28;20248;-79
2021/03/04 02:48:37;;;;;;;12.90;11.53;;;5.20;1.00;;;;;;4858505;28;20205;-79
2021/03/04 02:51:01;;;;;;;13.67;12.10;;;5.20;1.00;;;;;;4856683;28;20186;-80
2021/03/04 02:53:23;;;;;;;11.67;10.43;;;5.20;1.00;;;;;;4870943;28;20801;-77
2021/03/04 02:55:46;;;;;;;13.23;10.60;;;5.20;1.00;;;;;;4875003;28;20189;-78
2021/03/04 02:58:09;;;;;;;13.03;10.97;;;5.10;1.00;;;;;;4856477;28;20317;-77
2021/03/04 03:00:33;;;;;;;12.63;10.70;;;5.10;1.00;;;;;;4873417;28;20541;-74
2021/03/04 03:02:57;;;;;;;12.87;10.87;;;5.10;99.90;;;;;;4886157;28;20232;-79
2021/03/04 03:05:22;;;;;;;13.30;11.23;;;5.10;1.00;;;;;;4874430;28;20225;-80
2021/03/04 03:07:45;;;;;;;13.83;11.63;;;5.00;1.00;;;;;;4851813;28;20250;-78
2021/03/04 03:10:09;;;;;;;14.03;12.47;;;5.00;1.00;;;;;;4859255;28;20256;-78
2021/03/04 03:12:33;;;;;;;12.70;11.00;;;5.00;1.00;;;;;;4863864;28;20181;-80
2021/03/04 03:14:56;;;;;;;13.90;11.43;;;4.90;1.00;;;;;;4874864;28;20720;-80
2021/03/04 03:17:19;;;;;;;13.03;10.87;;;4.70;71.40;;;;;;4874958;28;20189;-78
2021/03/04 03:19:41;;;;;;;13.43;12.03;;;5.00;99.90;;;;;;4840738;28;20621;-81
2021/03/04 03:22:03;;;;;;;12.53;11.00;;;4.90;1.00;;;;;;4856614;28;20232;-77
2021/03/04 03:24:26;;;;;;;13.47;11.30;;;4.80;1.00;;;;;;4873870;28;20182;-79
2021/03/04 03:26:48;;;;;;;13.70;11.97;;;4.80;1.00;;;;;;4857049;28;20214;-78
2021/03/04 03:29:10;;;;;;;15.90;11.87;;;4.80;1.00;;;;;;4856678;28;20252;-79
2021/03/04 03:31:35;;;;;;;15.33;12.30;;;4.80;1.00;;;;;;4852771;28;20187;-80
2021/03/04 03:33:59;;;;;;;13.90;11.70;;;4.80;1.00;;;;;;4868325;28;20194;-82
2021/03/04 03:36:22;;;;;;;14.50;11.93;;;4.80;99.90;;;;;;4892453;28;20185;-78
2021/03/04 03:38:45;;;;;;;13.77;11.37;;;4.90;1.00;;;;;;4866426;28;20190;-77
2021/03/04 03:41:08;;;;;;;14.70;12.30;;;4.90;1.00;;;;;;4861145;28;20186;-79
2021/03/04 03:43:32;;;;;;;13.37;11.77;;;4.90;1.00;;;;;;4863059;28;20243;-79
2021/03/04 03:45:55;;;;;;;13.47;11.83;;;4.90;1.00;;;;;;4841534;28;20285;-78
2021/03/04 03:48:19;;;;;;;15.30;12.07;;;5.00;1.00;;;;;;4854983;28;20190;-80
2021/03/04 03:50:44;;;;;;;12.87;11.47;;;5.00;99.90;;;;;;4867586;28;20189;-77
2021/03/04 03:53:07;;;;;;;12.57;10.90;;;5.20;2.20;;;;;;4856323;28;20214;-77
2021/03/04 03:55:29;;;;;;;13.23;11.00;;;5.00;1.00;;;;;;4857158;28;20186;-78
2021/03/04 03:57:54;;;;;;;12.27;10.97;;;5.10;1.00;;;;;;4845107;28;20434;-77
2021/03/04 04:00:23;;;;;;;14.43;11.90;;;5.10;99.90;;;;;;4874228;28;20213;-78
2021/03/04 04:02:45;;;;;;;13.43;10.87;;;5.00;99.90;;;;;;4879672;28;20279;-79
2021/03/04 04:05:08;;;;;;;12.53;11.13;;;5.00;1.00;;;;;;4867848;28;20221;-79
2021/03/04 04:07:31;;;;;;;13.03;10.90;;;4.90;1.00;;;;;;4874481;28;20210;-78
2021/03/04 04:09:54;;;;;;;13.93;11.93;;;5.00;1.00;;;;;;4858588;28;20178;-80
2021/03/04 04:12:16;;;;;;;13.13;11.00;;;4.90;1.00;;;;;;4860726;28;20194;-81
2021/03/04 04:14:39;;;;;;;13.03;11.00;;;4.90;1.00;;;;;;4845903;28;20190;-82
2021/03/04 04:17:01;;;;;;;13.33;11.67;;;4.90;1.00;;;;;;4871052;28;20248;-78
2021/03/04 04:19:24;;;;;;;12.33;10.97;;;5.00;1.00;;;;;;4857791;28;20994;-78
2021/03/04 04:21:47;;;;;;;12.97;11.30;;;4.90;99.90;;;;;;4860007;28;20224;-79
2021/03/04 04:24:11;;;;;;;13.30;11.30;;;4.90;1.00;;;;;;4862548;28;20236;-80
2021/03/04 04:26:33;;;;;;;12.50;10.37;;;4.90;1.00;;;;;;4872130;28;20605;-81
2021/03/04 04:28:55;;;;;;;11.43;10.23;;;5.00;99.90;;;;;;4868731;28;20186;-84
2021/03/04 04:31:17;;;;;;;13.33;10.80;;;5.00;1.00;;;;;;4858527;28;20186;-80
2021/03/04 04:33:39;;;;;;;12.43;10.77;;;5.00;1.00;;;;;;4863861;28;20584;-79
2021/03/04 04:36:02;;;;;;;14.33;11.60;;;5.10;1.00;;;;;;4842724;28;20198;-84
2021/03/04 04:38:24;;;;;;;13.97;11.67;;;5.10;99.90;;;;;;4868259;28;20189;-77
2021/03/04 04:40:47;;;;;;;13.67;11.03;;;5.60;17.30;;;;;;4875704;28;20306;-78
2021/03/04 04:43:10;;;;;;;12.90;11.27;;;5.10;1.00;;;;;;4853678;28;20179;-86
2021/03/04 04:45:32;;;;;;;12.10;9.60;;;5.10;1.00;;;;;;4861003;28;20243;-80
2021/03/04 04:47:54;;;;;;;13.13;11.20;;;5.30;1.00;;;;;;4864789;28;20213;-77
2021/03/04 04:50:17;;;;;;;13.30;11.07;;;5.20;99.90;;;;;;4841250;28;20229;-83
2021/03/04 04:52:39;;;;;;;11.53;10.30;;;5.10;69.30;;;;;;4865944;28;20210;-82
2021/03/04 04:55:01;;;;;;;14.37;11.10;;;5.10;1.00;;;;;;4864881;28;20231;-78
2021/03/04 04:57:25;;;;;;;11.00;9.67;;;5.10;1.00;;;;;;4876284;28;20181;-81
2021/03/04 04:59:47;;;;;;;12.20;10.60;;;5.10;1.00;;;;;;4863728;28;20215;-77
2021/03/04 05:02:09;;;;;;;11.60;10.40;;;5.10;1.00;;;;;;4873616;28;20232;-80
2021/03/04 05:04:31;;;;;;;12.73;10.67;;;5.10;1.00;;;;;;4893691;28;20228;-81
2021/03/04 05:06:53;;;;;;;13.73;11.00;;;5.10;1.00;;;;;;4877194;28;20720;-79
2021/03/04 05:09:15;;;;;;;12.40;11.10;;;5.10;1.00;;;;;;4846521;28;20686;-81
2021/03/04 05:11:37;;;;;;;12.17;10.47;;;5.30;99.90;;;;;;4875722;28;20557;-82
2021/03/04 05:14:00;;;;;;;11.97;10.03;;;5.20;99.90;;;;;;4870937;28;20194;-88
2021/03/04 05:16:22;;;;;;;16.13;11.97;;;5.20;1.00;;;;;;4874978;28;20243;-76
2021/03/04 05:18:45;;;;;;;15.73;12.43;;;5.30;1.00;;;;;;4868953;28;20194;-75
2021/03/04 05:21:07;;;;;;;15.77;12.63;;;5.20;1.00;;;;;;4858309;28;20197;-81
2021/03/04 05:23:29;;;;;;;15.70;12.67;;;5.30;1.00;;;;;;4849403;28;20186;-82
2021/03/04 05:25:51;;;;;;;14.53;13.03;;;5.30;46.70;;;;;;4858144;28;20554;-87
2021/03/04 05:28:14;;;;;;;15.40;12.30;;;5.30;1.00;;;;;;4863805;28;20186;-78
2021/03/04 05:30:37;;;;;;;14.07;11.40;;;5.30;99.90;;;;;;4871832;28;20186;-76
2021/03/04 05:32:59;;;;;;;13.90;11.37;;;5.30;1.00;;;;;;4858212;28;20190;-77
2021/03/04 05:35:21;;;;;;;13.53;11.20;;;5.30;1.00;;;;;;4866313;28;20189;-77
2021/03/04 05:37:43;;;;;;;12.00;10.80;;;5.30;1.00;;;;;;4871215;28;20194;-77
2021/03/04 05:40:06;;;;;;;13.17;10.00;;;5.50;99.90;;;;;;4841224;28;20225;-77
2021/03/04 05:42:31;;;;;;;12.70;11.43;;;5.40;1.00;;;;;;4876061;28;20590;-80
2021/03/04 05:44:53;;;;;;;13.57;11.47;;;5.40;99.90;;;;;;4862624;28;20185;-80
2021/03/04 05:47:19;;;;;;;13.23;10.77;;;5.40;1.00;;;;;;4856230;28;20765;-83
2021/03/04 05:49:45;;;;;;;15.03;12.07;;;5.40;1.00;;;;;;4875573;28;20186;-85
2021/03/04 05:52:09;;;;;;;16.47;11.90;;;5.50;1.00;;;;;;4840005;28;20699;-84
2021/03/04 05:54:36;;;;;;;15.47;13.10;;;5.50;1.00;;;;;;4864064;28;20204;-85
2021/03/04 05:56:59;;;;;;;16.43;13.73;;;5.60;99.90;;;;;;4876863;28;20243;-77
2021/03/04 05:59:23;;;;;;;17.47;13.20;;;5.70;1.00;;;;;;4845390;28;20198;-82
2021/03/04 06:01:45;;;;;;;17.07;14.23;;;5.70;1.00;;;;;;4857993;28;20286;-78
2021/03/04 06:04:10;;;;;;;17.07;14.37;;;5.70;1.00;;;;;;4839687;28;20269;-82
2021/03/04 06:06:32;;;;;;;17.97;14.37;;;5.70;1.00;;;;;;4864754;28;20194;-81
2021/03/04 06:08:54;;;;;;;14.70;12.93;;;5.70;1.00;;;;;;4841547;28;20182;-85
2021/03/04 06:11:16;;;;;;;16.60;14.03;;;5.70;1.00;;;;;;4874935;28;20609;-79
2021/03/04 06:13:38;;;;;;;18.53;14.70;;;5.70;1.00;;;;;;4871055;28;20194;-84
2021/03/04 06:16:01;;;;;;;17.77;15.00;;;5.70;1.00;;;;;;4870279;28;20708;-86
2021/03/04 06:18:25;;;;;;;17.60;14.93;;;5.70;1.00;;;;;;4864641;28;20659;-82
2021/03/04 06:20:48;;;;;;;14.83;12.93;;;5.70;1.00;;;;;;4861740;28;20240;-79
2021/03/04 06:23:10;;;;;;;17.27;14.40;;;5.80;1.00;;;;;;4859767;28;20651;-80
2021/03/04 06:25:32;;;;;;;15.67;14.00;;;5.80;1.00;;;;;;4861170;28;20186;-83
2021/03/04 06:27:54;;;;;;;17.60;14.53;;;5.90;1.00;;;;;;4856474;28;20279;-78
2021/03/04 06:30:18;;;;;;;17.60;14.30;;;5.80;1.00;;;;;;4861735;28;20185;-78
2021/03/04 06:32:41;;;;;;;17.47;14.50;;;5.90;1.00;;;;;;4845149;28;20225;-79
2021/03/04 06:35:06;;;;;;;17.63;14.13;;;6.00;1.00;;;;;;4861158;28;20182;-79
2021/03/04 06:37:30;;;;;;;16.97;14.73;;;6.00;99.90;;;;;;4863059;28;20189;-78
2021/03/04 06:39:52;;;;;;;17.67;14.73;;;6.20;56.30;;;;;;4866842;28;20190;-81
2021/03/04 06:42:15;;;;;;;14.93;13.43;;;6.20;1.00;;;;;;4858631;28;20336;-81
2021/03/04 06:44:41;;;;;;;17.60;14.23;;;6.20;99.90;;;;;;4859841;28;20217;-78
2021/03/04 06:47:04;;;;;;;16.50;13.43;;;6.20;87.50;;;;;;4876007;28;20606;-79
2021/03/04 06:49:36;;;;;;;17.07;13.67;;;6.30;1.00;;;;;;4856658;28;20254;-78
2021/03/04 06:51:58;;;;;;;17.10;13.37;;;6.30;99.90;;;;;;4858810;28;20213;-78
2021/03/04 06:54:25;;;;;;;16.77;13.53;;;6.40;1.00;;;;;;4875349;28;20215;-81
2021/03/04 06:56:49;;;;;;;15.63;13.97;;;6.50;1.00;;;;;;4867382;28;20595;-77
2021/03/04 06:59:11;;;;;;;16.33;13.13;;;6.60;99.90;;;;;;4857305;28;20189;-79
2021/03/04 07:01:40;;;;;;;16.83;14.00;;;6.60;99.90;;;;;;4860789;28;20198;-76
2021/03/04 07:04:03;;;;;;;17.37;13.57;;;6.60;99.90;;;;;;4852104;28;20256;-79
2021/03/04 07:06:26;;;;;;;14.90;13.13;;;6.80;1.00;;;;;;4859330;28;20244;-78
2021/03/04 07:08:49;;;;;;;15.37;12.87;;;6.80;1.00;;;;;;4874113;28;20735;-72
2021/03/04 07:11:14;;;;;;;14.20;12.50;;;6.90;1.00;;;;;;4871843;28;20186;-79
2021/03/04 07:13:37;;;;;;;13.23;11.83;;;6.90;1.00;;;;;;4856884;28;20197;-78
2021/03/04 07:16:04;;;;;;;12.83;11.40;;;7.00;99.90;;;;;;4875180;28;20189;-79
2021/03/04 07:18:28;;;;;;;12.13;10.87;;;7.00;99.90;;;;;;4864861;28;20244;-75
2021/03/04 07:20:51;;;;;;;12.67;10.70;;;7.10;99.90;;;;;;4844784;28;20198;-81
2021/03/04 07:23:13;;;;;;;13.33;11.90;;;7.20;99.90;;;;;;4872038;28;20186;-77
2021/03/04 07:25:37;;;;;;;13.77;11.50;;;7.20;1.00;;;;;;4867333;28;20244;-80
2021/03/04 07:28:01;;;;;;;12.80;10.87;;;7.30;1.00;;;;;;4856159;28;20279;-79
2021/03/04 07:30:24;;;;;;;13.10;10.87;;;7.30;1.00;;;;;;4857104;28;20202;-78
2021/03/04 07:32:46;;;;;;;12.30;10.60;;;7.40;1.00;;;;;;4868156;28;20217;-76
2021/03/04 07:35:13;;;;;;;12.90;11.57;;;7.50;1.00;;;;;;4876382;28;20661;-78
2021/03/04 07:37:35;;;;;;;12.87;11.53;;;7.70;1.00;;;;;;4871670;28;20293;-77
2021/03/04 07:40:01;;;;;;;12.67;11.30;;;8.10;1.00;;;;;;4878051;28;20197;-79
2021/03/04 07:42:24;;;;;;;13.70;11.47;;;8.40;99.90;;;;;;4878104;28;20185;-81
2021/03/04 07:44:47;;;;;;;11.10;9.80;;;8.70;99.90;;;;;;4871831;28;20197;-77
2021/03/04 07:47:10;;;;;;;11.63;10.30;;;8.90;99.90;;;;;;4873871;28;20202;-78
2021/03/04 07:49:34;;;;;;;11.30;10.20;;;9.10;54.80;;;;;;4862284;28;20231;-74
2021/03/04 07:52:07;;;;;;;10.00;9.00;;;9.30;1.00;;;;;;4879214;28;20582;-78
2021/03/04 07:54:30;;;;;;;10.90;9.73;;;9.30;1.00;;;;;;4876248;28;20186;-81
2021/03/04 07:57:02;;;;;;;10.97;9.87;;;9.30;1.00;;;;;;4859604;28;20194;-80
2021/03/04 07:59:25;;;;;;;10.27;9.23;;;9.30;1.00;;;;;;4888030;28;20317;-78
2021/03/04 08:01:58;;;;;;;10.33;9.33;;;9.40;1.00;;;;;;4880062;28;20224;-77
2021/03/04 08:04:22;;;;;;;11.33;9.83;;;9.30;1.00;;;;;;4898305;28;20220;-81
2021/03/04 08:06:44;;;;;;;10.43;9.37;;;9.30;1.00;;;;;;4863918;28;20279;-80
2021/03/04 08:09:06;;;;;;;10.47;9.43;;;9.30;1.00;;;;;;4861445;28;20755;-75
2021/03/04 08:11:29;;;;;;;10.80;9.77;;;9.40;1.00;;;;;;4862326;28;20814;-79
2021/03/04 08:13:51;;;;;;;10.47;9.40;;;9.40;1.00;;;;;;4875905;28;20197;-74
2021/03/04 08:16:15;;;;;;;9.67;8.73;;;9.50;1.00;;;;;;4861586;28;20613;-78
2021/03/04 08:18:40;;;;;;;10.67;9.60;;;9.50;1.00;;;;;;4874119;28;20190;-78
2021/03/04 08:21:04;;;;;;;10.57;9.57;;;9.50;1.00;;;;;;4864015;28;20581;-77
2021/03/04 08:23:26;;;;;;;9.87;8.87;;;9.50;1.00;;;;;;4864135;28;20279;-77
2021/03/04 08:25:48;;;;;;;11.17;9.00;;;9.60;1.00;;;;;;4895372;28;20218;-76
2021/03/04 08:28:20;;;;;;;9.87;8.90;;;9.70;1.00;;;;;;4879496;28;20736;-79
2021/03/04 08:30:42;;;;;;;10.23;9.30;;;9.90;1.00;;;;;;4878308;28;20174;-76
2021/03/04 08:33:06;;;;;;;9.63;8.77;;;10.10;1.00;;;;;;4878374;28;20193;-84
2021/03/04 08:35:30;;;;;;;9.00;8.17;;;10.40;1.00;;;;;;4876765;28;20186;-84
2021/03/04 08:38:01;;;;;;;7.87;7.13;;;10.70;1.00;;;;;;4877547;28;20193;-77
2021/03/04 08:40:23;;;;;;;7.47;6.83;;;11.00;1.00;;;;;;4875727;28;20189;-84
2021/03/04 08:42:45;;;;;;;7.57;6.83;;;11.40;1.00;;;;;;4876138;28;20193;-81
2021/03/04 08:45:09;;;;;;;7.07;6.43;;;11.70;1.00;;;;;;4860605;28;20283;-80
2021/03/04 08:47:31;;;;;;;6.47;5.90;;;11.90;1.00;;;;;;4858124;28;20210;-79
2021/03/04 08:49:54;;;;;;;6.97;6.40;;;12.00;1.00;;;;;;4861501;28;20240;-82
2021/03/04 08:52:22;;;;;;;6.37;5.80;;;12.00;1.00;;;;;;4867072;28;20285;-75
2021/03/04 08:54:49;;;;;;;5.60;5.10;;;12.20;1.00;;;;;;4867162;28;20189;-78
2021/03/04 08:57:11;;;;;;;5.70;5.13;;;12.40;1.00;;;;;;4871464;28;20193;-76
2021/03/04 08:59:33;;;;;;;5.20;4.73;;;12.60;1.00;;;;;;4858247;28;20202;-79
2021/03/04 09:01:57;;;;;;;5.90;4.70;;;12.90;1.00;;;;;;4868016;28;20228;-73
2021/03/04 09:04:20;;;;;;;4.57;4.20;;;13.00;1.00;;;;;;4889737;28;20225;-75
2021/03/04 09:06:42;;;;;;;5.80;3.80;;;13.20;1.00;;;;;;4865294;28;20186;-74
2021/03/04 09:09:08;;;;;;;4.47;4.10;;;13.30;1.00;;;;;;4860716;28;20259;-74
2021/03/04 09:11:32;;;;;;;4.20;2.93;;;13.40;1.00;;;;;;4873435;28;20254;-74
2021/03/04 09:14:01;;;;;;;3.70;3.40;;;13.50;1.00;;;;;;4866401;28;20186;-77
2021/03/04 09:16:23;;;;;;;3.63;3.33;;;13.60;1.00;;;;;;4863896;28;20190;-77
2021/03/04 09:18:47;;;;;;;3.90;3.60;;;13.60;1.00;;;;;;4873070;28;20198;-76
2021/03/04 09:21:10;;;;;;;3.27;3.03;;;13.70;1.00;;;;;;4850055;28;20547;-81
2021/03/04 09:23:32;;;;;;;3.33;3.13;;;13.80;1.00;;;;;;4857158;28;20194;-80
2021/03/04 09:25:56;;;;;;;3.20;3.00;;;13.90;1.00;;;;;;4867494;28;20193;-85
2021/03/04 09:28:19;;;;;;;3.40;3.20;;;13.90;1.00;;;;;;4859260;28;20218;-80
2021/03/04 09:30:42;;;;;;;3.07;2.87;;;14.00;1.00;;;;;;4857950;28;20571;-83
2021/03/04 09:33:15;;;;;;;3.07;2.87;;;14.10;1.00;;;;;;4857325;28;20660;-79
2021/03/04 09:35:37;;;;;;;2.80;2.60;;;14.30;1.00;;;;;;4863020;28;20186;-78
2021/03/04 09:38:07;;;;;;;2.67;2.47;;;14.60;1.00;;;;;;4857104;28;20248;-81
2021/03/04 09:40:30;;;;;;;2.87;2.67;;;15.00;1.00;;;;;;4864094;28;20239;-79
2021/03/04 09:42:53;;;;;;;2.37;2.23;;;15.40;1.00;;;;;;4864959;28;20193;-81
2021/03/04 09:45:15;;;;;;;2.20;2.10;;;15.90;1.00;;;;;;4864059;28;20658;-81
2021/03/04 09:47:42;;;;;;;1.70;1.60;;;16.40;99.90;;;;;;4876436;28;20608;-84
2021/03/04 09:50:17;;;;;;;1.17;1.17;;;16.80;99.90;;;;;;4873609;28;20185;-81
2021/03/04 09:52:39;;;;;;;1.50;1.40;;;17.00;99.90;;;;;;4839852;28;20281;-77
2021/03/04 09:55:07;;;;;;;0.80;0.80;;;17.20;99.90;;;;;;4858180;28;20264;-76
2021/03/04 09:57:29;;;;;;;0.83;0.83;;;17.40;99.90;;;;;;4839890;28;20241;-74
2021/03/04 09:59:53;;;;;;;0.83;0.83;;;17.60;99.90;;;;;;4873791;28;20238;-78
2021/03/04 10:02:16;;;;;;;0.57;0.57;;;17.70;99.90;;;;;;4866178;28;20270;-79
2021/03/04 10:04:38;;;;;;;0.93;0.93;;;17.90;99.90;;;;;;4881628;28;20224;-79
2021/03/04 10:07:00;;;;;;;0.60;0.60;;;17.70;99.90;;;;;;4866516;28;20246;-80
2021/03/04 10:09:26;;;;;;;0.60;0.60;;;17.60;99.90;;;;;;4852812;28;20546;-76
2021/03/04 10:11:49;;;;;;;0.67;0.67;;;17.60;99.90;;;;;;4870579;28;20194;-79
2021/03/04 10:14:12;;;;;;;0.50;0.50;;;17.80;99.90;;;;;;4871916;28;20589;-79
2021/03/04 10:16:35;;;;;;;0.50;0.50;;;18.20;99.90;;;;;;4865757;28;20243;-75
2021/03/04 10:18:57;;;;;;;0.50;0.50;;;18.70;99.90;;;;;;4873445;28;20647;-75
2021/03/04 10:21:20;;;;;;;0.40;0.40;;;19.20;99.90;;;;;;4857229;28;20198;-74
2021/03/04 10:23:45;;;;;;;0.30;0.30;;;19.50;99.90;;;;;;4875243;28;20193;-79
2021/03/04 10:26:09;;;;;;;0.27;0.27;;;19.70;99.90;;;;;;4881886;28;20182;-77
2021/03/04 10:28:31;;;;;;;0.40;0.40;;;20.20;99.90;;;;;;4867047;28;20210;-78
2021/03/04 10:30:53;;;;;;;0.30;0.30;;;20.50;99.90;;;;;;4856260;28;20209;-80
2021/03/04 10:33:16;;;;;;;0.30;0.30;;;20.70;99.90;;;;;;4860650;28;20606;-75
2021/03/04 10:35:41;;;;;;;0.30;0.30;;;20.70;99.90;;;;;;4870895;28;20329;-77
2021/03/04 10:38:04;;;;;;;0.30;0.30;;;20.50;99.90;;;;;;4866133;28;20186;-79
2021/03/04 10:40:26;;;;;;;0.30;0.30;;;19.90;99.90;;;;;;4856992;28;20241;-76
2021/03/04 10:42:49;;;;;;;0.20;0.20;;;19.50;99.90;;;;;;4853385;28;20190;-74
2021/03/04 10:45:13;;;;;;;0.30;0.30;;;19.00;99.90;;;;;;4874171;28;20259;-76
2021/03/04 10:47:35;;;;;;;0.40;0.40;;;18.60;99.90;;;;;;4876085;28;20239;-75
2021/03/04 10:49:58;;;;;;;0.43;0.40;;;18.10;99.90;;;;;;4863809;28;20193;-79
2021/03/04 10:52:21;;;;;;;0.40;0.40;;;17.50;99.90;;;;;;4863511;28;20209;-80
2021/03/04 10:54:43;;;;;;;0.50;0.50;;;17.10;99.90;;;;;;4849230;28;20607;-75
2021/03/04 10:57:06;;;;;;;0.60;0.60;;;16.50;99.90;;;;;;4865272;28;20243;-78
2021/03/04 10:59:28;;;;;;;0.60;0.60;;;16.20;99.90;;;;;;4877469;28;20197;-75
2021/03/04 11:01:50;;;;;;;0.70;0.70;;;16.00;99.90;;;;;;4876885;28;20282;-76
2021/03/04 11:04:12;;;;;;;0.80;0.80;;;15.90;99.90;;;;;;4858946;28;20263;-76
2021/03/04 11:06:35;;;;;;;0.70;0.70;;;15.90;99.90;;;;;;4865700;28;20189;-74
2021/03/04 11:08:57;;;;;;;0.67;0.67;;;16.20;99.90;;;;;;4856333;28;20283;-76
2021/03/04 11:11:20;;;;;;;0.60;0.60;;;16.70;99.90;;;;;;4853064;28;20215;-75
2021/03/04 11:13:42;;;;;;;0.53;0.53;;;17.30;99.90;;;;;;4871579;28;20182;-75
2021/03/04 11:16:05;;;;;;;0.60;0.60;;;17.90;99.90;;;;;;4861580;28;20194;-75
2021/03/04 11:18:27;;;;;;;0.40;0.40;;;18.50;99.90;;;;;;4863791;28;20225;-75
2021/03/04 11:20:49;;;;;;;0.30;0.30;;;19.20;99.90;;;;;;4866630;28;20219;-80
2021/03/04 11:23:12;;;;;;;0.40;0.40;;;19.50;99.90;;;;;;4874277;28;20644;-75
2021/03/04 11:25:34;;;;;;;0.30;0.30;;;19.50;99.90;;;;;;4866317;28;20217;-75
2021/03/04 11:27:56;;;;;;;0.30;0.30;;;19.40;99.90;;;;;;4874029;28;20696;-78
2021/03/04 11:30:20;;;;;;;0.30;0.30;;;19.20;99.90;;;;;;4898784;28;20203;-74
2021/03/04 11:32:42;;;;;;;0.30;0.30;;;18.90;99.90;;;;;;4859649;28;20722;-76
2021/03/04 11:35:05;;;;;;;0.30;0.30;;;18.50;99.90;;;;;;4867211;28;20190;-78
2021/03/04 11:37:28;;;;;;;0.27;0.27;;;18.00;99.90;;;;;;4854553;28;20198;-74
2021/03/04 11:39:51;;;;;;;0.40;0.40;;;17.60;99.90;;;;;;4868560;28;20900;-76
2021/03/04 11:42:13;;;;;;;0.30;0.30;;;17.10;99.90;;;;;;4873251;28;20235;-76
2021/03/04 11:44:35;;;;;;;0.40;0.40;;;16.60;99.90;;;;;;4841348;28;20711;-74
2021/03/04 11:46:57;;;;;;;0.57;0.50;;;16.20;99.90;;;;;;4860808;28;20240;-74
2021/03/04 11:49:19;;;;;;;0.40;0.40;;;15.80;99.90;;;;;;4870418;28;20286;-77
2021/03/04 11:51:44;;;;;;;0.53;0.53;;;15.50;99.90;;;;;;4865023;28;20264;-74
2021/03/04 11:54:06;;;;;;;0.80;0.80;;;15.20;99.90;;;;;;4863798;28;20189;-77
2021/03/04 11:56:30;;;;;;;0.83;0.83;;;15.00;99.90;;;;;;4877136;28;20216;-76
2021/03/04 11:58:53;;;;;;;1.00;0.93;;;14.70;99.90;;;;;;4857699;28;20220;-76
2021/03/04 12:01:15;;;;;;;1.17;1.07;;;14.60;99.90;;;;;;4872032;28;20243;-80
2021/03/04 12:03:37;;;;;;;0.97;0.97;;;14.40;99.90;;;;;;4854365;28;20249;-78
2021/03/04 12:05:59;;;;;;;1.27;1.27;;;14.30;99.90;;;;;;4870390;28;20182;-80
2021/03/04 12:08:21;;;;;;;1.07;1.07;;;14.30;99.90;;;;;;4871421;28;20217;-75
2021/03/04 12:10:43;;;;;;;1.23;1.23;;;14.30;99.90;;;;;;4859424;28;20185;-76
2021/03/04 12:13:07;;;;;;;1.40;1.30;;;14.30;99.90;;;;;;4868988;28;22018;-77
2021/03/04 12:15:30;;;;;;;1.53;1.43;;;14.50;99.90;;;;;;4850339;28;20259;-79
2021/03/04 12:17:52;;;;;;;1.43;1.43;;;14.50;99.90;;;;;;4872871;28;20189;-76
2021/03/04 12:20:14;;;;;;;1.53;1.43;;;14.40;99.90;;;;;;4877968;28;20242;-75
2021/03/04 12:22:37;;;;;;;1.50;1.40;;;14.40;99.90;;;;;;4879664;28;20195;-75
2021/03/04 12:24:59;;;;;;;1.63;1.53;;;14.40;99.90;;;;;;4858035;28;20261;-78